createdAt,value
2023-09-23T00:01:06.607Z,0.90
2023-09-23T00:03:36.369Z,0.90
2023-09-23T00:06:05.110Z,1.10
2023-09-23T00:08:33.631Z,0.82
2023-09-23T00:11:02.711Z,0.77
2023-09-23T00:13:33.776Z,0.77
2023-09-23T00:16:04.655Z,0.82
2023-09-23T00:18:33.786Z,0.70
2023-09-23T00:21:03.425Z,1.17
2023-09-23T00:23:32.280Z,0.90
2023-09-23T00:26:01.984Z,0.82
2023-09-23T00:28:32.074Z,0.85
2023-09-23T00:31:12.472Z,0.70
2023-09-23T00:33:41.139Z,1.00
2023-09-23T00:36:10.672Z,1.38
2023-09-23T00:38:39.735Z,1.00
2023-09-23T00:41:09.631Z,1.02
2023-09-23T00:43:39.235Z,1.08
2023-09-23T00:46:09.679Z,0.80
2023-09-23T00:48:40.548Z,0.75
2023-09-23T00:51:09.372Z,0.95
2023-09-23T00:53:41.333Z,1.00
2023-09-23T00:56:11.142Z,0.90
2023-09-23T00:58:44.000Z,1.10
2023-09-23T01:01:17.548Z,0.82
2023-09-23T01:03:47.203Z,1.00
2023-09-23T01:06:17.793Z,0.90
2023-09-23T01:08:47.569Z,0.80
2023-09-23T01:11:18.749Z,0.98
2023-09-23T01:13:52.057Z,0.80
2023-09-23T01:16:23.831Z,0.73
2023-09-23T01:18:54.939Z,1.02
2023-09-23T01:21:23.585Z,1.10
2023-09-23T01:23:54.706Z,0.80
2023-09-23T01:26:24.685Z,0.90
2023-09-23T01:28:53.295Z,0.80
2023-09-23T01:31:23.653Z,1.10
2023-09-23T01:33:52.683Z,0.75
2023-09-23T01:36:21.225Z,0.90
2023-09-23T01:38:50.614Z,1.27
2023-09-23T01:41:20.388Z,1.20
2023-09-23T01:43:50.294Z,1.10
2023-09-23T01:46:21.155Z,1.00
2023-09-23T01:48:49.717Z,1.00
2023-09-23T01:51:18.896Z,0.93
2023-09-23T01:53:47.556Z,1.02
2023-09-23T01:56:15.885Z,1.10
2023-09-23T01:58:46.461Z,1.10
2023-09-23T02:01:15.596Z,1.10
2023-09-23T02:03:44.919Z,1.10
2023-09-23T02:06:14.089Z,1.20
2023-09-23T02:08:42.384Z,1.10
2023-09-23T02:11:11.025Z,1.10
2023-09-23T02:13:42.373Z,1.35
2023-09-23T02:16:12.221Z,1.30
2023-09-23T02:18:41.106Z,1.05
2023-09-23T02:21:10.195Z,1.40
2023-09-23T02:23:38.548Z,1.00
2023-09-23T02:26:07.998Z,1.10
2023-09-23T02:28:36.333Z,1.15
2023-09-23T02:31:04.681Z,1.20
2023-09-23T02:33:34.406Z,1.23
2023-09-23T02:36:05.632Z,1.10
2023-09-23T02:38:33.804Z,0.98
2023-09-23T02:41:05.526Z,1.17
2023-09-23T02:43:34.036Z,1.38
2023-09-23T02:46:02.980Z,1.30
2023-09-23T02:48:34.239Z,1.35
2023-09-23T02:51:04.856Z,1.10
2023-09-23T02:53:34.533Z,1.60
2023-09-23T02:56:07.548Z,1.52
2023-09-23T02:58:39.425Z,1.20
2023-09-23T03:01:11.777Z,1.75
2023-09-23T03:03:42.180Z,1.30
2023-09-23T03:06:12.144Z,1.63
2023-09-23T03:08:40.513Z,1.92
2023-09-23T03:11:12.805Z,1.77
2023-09-23T03:13:41.202Z,1.73
2023-09-23T03:16:14.150Z,2.08
2023-09-23T03:18:56.390Z,2.13
2023-09-23T03:21:25.152Z,2.10
2023-09-23T03:23:54.407Z,1.95
2023-09-23T03:26:23.411Z,2.63
2023-09-23T03:28:52.226Z,2.40
2023-09-23T03:31:20.562Z,3.00
2023-09-23T03:33:53.208Z,3.00
2023-09-23T03:36:21.596Z,2.70
2023-09-23T03:38:50.447Z,2.95
2023-09-23T03:41:18.838Z,2.85
2023-09-23T03:43:47.121Z,3.30
2023-09-23T03:46:17.445Z,3.63
2023-09-23T03:48:46.334Z,3.67
2023-09-23T03:51:16.774Z,3.53
2023-09-23T03:53:46.088Z,3.58
2023-09-23T03:56:14.515Z,3.55
2023-09-23T03:58:44.587Z,3.40
2023-09-23T04:01:15.163Z,3.40
2023-09-23T04:03:44.552Z,3.55
2023-09-23T04:06:13.260Z,3.63
2023-09-23T04:08:43.416Z,3.97
2023-09-23T04:11:17.253Z,3.63
2023-09-23T04:13:47.890Z,4.00
2023-09-23T04:16:16.274Z,3.55
2023-09-23T04:18:45.051Z,3.10
2023-09-23T04:21:13.597Z,3.40
2023-09-23T04:23:43.177Z,3.25
2023-09-23T04:26:14.347Z,3.55
2023-09-23T04:28:42.647Z,4.18
2023-09-23T04:31:12.238Z,4.07
2023-09-23T04:33:41.048Z,3.55
2023-09-23T04:36:12.215Z,4.20
2023-09-23T04:38:40.821Z,3.08
2023-09-23T04:41:10.456Z,3.92
2023-09-23T04:43:40.983Z,3.25
2023-09-23T04:46:09.439Z,3.97
2023-09-23T04:48:37.780Z,3.53
2023-09-23T04:51:07.552Z,4.25
2023-09-23T04:53:35.979Z,3.78
2023-09-23T04:56:07.909Z,3.65
2023-09-23T04:58:37.515Z,3.60
2023-09-23T05:01:07.031Z,4.32
2023-09-23T05:03:38.000Z,3.58
2023-09-23T05:06:06.988Z,2.70
2023-09-23T05:08:35.347Z,3.67
2023-09-23T05:11:04.366Z,3.67
2023-09-23T05:13:32.674Z,3.47
2023-09-23T05:16:02.456Z,3.60
2023-09-23T05:18:30.904Z,3.75
2023-09-23T05:20:59.390Z,3.58
2023-09-23T05:23:27.756Z,3.42
2023-09-23T05:25:59.015Z,3.00
2023-09-23T05:28:28.981Z,3.45
2023-09-23T05:30:57.214Z,3.38
2023-09-23T05:33:26.883Z,3.33
2023-09-23T05:35:55.133Z,3.10
2023-09-23T05:38:23.392Z,3.28
2023-09-23T05:40:53.237Z,3.70
2023-09-23T05:43:21.484Z,3.42
2023-09-23T05:45:50.417Z,3.58
2023-09-23T05:48:18.595Z,3.25
2023-09-23T05:50:49.252Z,3.22
2023-09-23T05:53:18.851Z,3.83
2023-09-23T05:55:48.493Z,3.50
2023-09-23T05:58:16.634Z,3.70
2023-09-23T06:00:45.687Z,2.70
2023-09-23T06:03:17.770Z,3.30
2023-09-23T06:05:46.219Z,3.25
2023-09-23T06:08:15.928Z,2.63
2023-09-23T06:10:44.209Z,3.00
2023-09-23T06:13:12.538Z,2.88
2023-09-23T06:15:40.942Z,2.80
2023-09-23T06:18:10.042Z,4.03
2023-09-23T06:20:38.516Z,3.30
2023-09-23T06:23:06.769Z,2.83
2023-09-23T06:25:36.715Z,3.97
2023-09-23T06:28:05.250Z,3.75
2023-09-23T06:30:33.500Z,3.40
2023-09-23T06:33:01.881Z,3.08
2023-09-23T06:35:30.323Z,3.70
2023-09-23T06:38:00.538Z,3.70
2023-09-23T06:40:28.856Z,3.58
2023-09-23T06:42:58.432Z,3.40
2023-09-23T06:45:28.222Z,3.72
2023-09-23T06:47:56.394Z,3.88
2023-09-23T06:50:24.807Z,3.45
2023-09-23T06:52:53.191Z,3.63
2023-09-23T06:55:21.497Z,3.88
2023-09-23T06:57:49.836Z,3.08
2023-09-23T07:00:19.730Z,3.78
2023-09-23T07:02:48.029Z,4.10
2023-09-23T07:05:16.712Z,3.55
2023-09-23T07:07:44.980Z,3.60
2023-09-23T07:10:13.158Z,4.13
2023-09-23T07:12:41.370Z,4.15
2023-09-23T07:15:10.713Z,4.30
2023-09-23T07:17:40.368Z,4.38
2023-09-23T07:20:09.961Z,4.93
2023-09-23T07:22:38.268Z,4.13
2023-09-23T07:25:07.786Z,4.72
2023-09-23T07:27:35.974Z,4.70
2023-09-23T07:30:04.999Z,4.55
2023-09-23T07:32:33.388Z,5.65
2023-09-23T07:35:04.834Z,4.90
2023-09-23T07:37:33.444Z,4.93
2023-09-23T07:40:01.658Z,5.18
2023-09-23T07:42:30.715Z,4.97
2023-09-23T07:44:59.157Z,4.70
2023-09-23T07:47:27.984Z,4.72
2023-09-23T07:49:56.423Z,4.30
2023-09-23T07:52:26.253Z,5.15
2023-09-23T07:54:54.599Z,4.25
2023-09-23T07:57:23.361Z,4.28
2023-09-23T07:59:51.698Z,4.95
2023-09-23T08:02:19.955Z,3.88
2023-09-23T08:04:48.436Z,4.68
2023-09-23T08:07:16.726Z,3.25
2023-09-23T08:09:46.459Z,3.85
2023-09-23T08:12:28.222Z,3.10
2023-09-23T08:14:56.632Z,3.35
2023-09-23T08:17:25.159Z,2.42
2023-09-23T08:19:54.733Z,2.72
2023-09-23T08:22:23.456Z,2.78
2023-09-23T08:24:53.058Z,2.83
2023-09-23T08:27:22.587Z,2.90
2023-09-23T08:29:51.122Z,2.67
2023-09-23T08:32:19.432Z,2.63
2023-09-23T08:34:48.018Z,2.35
2023-09-23T08:37:16.185Z,2.67
2023-09-23T08:39:44.615Z,2.70
2023-09-23T08:42:15.003Z,2.53
2023-09-23T08:44:44.493Z,2.20
2023-09-23T08:47:13.322Z,2.55
2023-09-23T08:49:42.201Z,2.25
2023-09-23T08:52:11.243Z,2.03
2023-09-23T08:54:40.105Z,2.45
2023-09-23T08:57:08.682Z,2.17
2023-09-23T08:59:38.634Z,1.80
2023-09-23T09:02:07.198Z,2.03
2023-09-23T09:04:38.627Z,1.92
2023-09-23T09:07:09.128Z,2.08
2023-09-23T09:09:39.984Z,1.90
2023-09-23T09:12:10.237Z,2.78
2023-09-23T09:14:43.665Z,2.25
2023-09-23T09:17:14.261Z,2.15
2023-09-23T09:19:46.849Z,1.90
2023-09-23T09:22:23.212Z,1.83
2023-09-23T09:24:51.659Z,2.17
2023-09-23T09:27:23.168Z,2.08
2023-09-23T09:30:00.162Z,1.90
2023-09-23T09:32:44.987Z,1.70
2023-09-23T09:35:15.926Z,1.80
2023-09-23T09:37:46.139Z,1.45
2023-09-23T09:40:18.333Z,2.15
2023-09-23T09:42:53.315Z,1.95
2023-09-23T09:45:23.738Z,1.70
2023-09-23T09:47:54.853Z,1.65
2023-09-23T09:50:28.272Z,1.98
2023-09-23T09:52:57.285Z,1.60
2023-09-23T09:55:26.225Z,1.67
2023-09-23T09:57:55.761Z,1.70
2023-09-23T10:00:36.449Z,2.10
2023-09-23T10:03:08.064Z,2.10
2023-09-23T10:05:37.633Z,1.90
2023-09-23T10:08:14.991Z,1.70
2023-09-23T10:10:48.528Z,1.95
2023-09-23T10:13:19.865Z,2.30
2023-09-23T10:15:49.496Z,2.10
2023-09-23T10:18:20.109Z,2.10
2023-09-23T10:20:53.154Z,1.60
2023-09-23T10:23:22.663Z,1.77
2023-09-23T10:25:52.418Z,1.80
2023-09-23T10:28:22.848Z,2.25
2023-09-23T10:31:03.945Z,1.83
2023-09-23T10:33:33.689Z,1.55
2023-09-23T10:36:02.464Z,1.67
2023-09-23T10:38:36.142Z,2.10
2023-09-23T10:41:05.528Z,2.25
2023-09-23T10:43:33.933Z,1.92
2023-09-23T10:46:04.104Z,1.70
2023-09-23T10:48:32.637Z,1.73
2023-09-23T10:51:02.710Z,2.40
2023-09-23T10:53:31.810Z,1.73
2023-09-23T10:56:01.379Z,2.30
2023-09-23T10:58:30.757Z,2.10
2023-09-23T11:00:59.264Z,1.83
2023-09-23T11:03:30.819Z,2.35
2023-09-23T11:05:59.556Z,2.10
2023-09-23T11:08:28.487Z,1.80
2023-09-23T11:10:58.820Z,2.15
2023-09-23T11:13:28.029Z,1.70
2023-09-23T11:15:56.283Z,1.70
2023-09-23T11:18:25.014Z,1.90
2023-09-23T11:20:54.709Z,1.90
2023-09-23T11:23:30.916Z,1.80
2023-09-23T11:25:59.514Z,1.95
2023-09-23T11:28:28.890Z,1.80
2023-09-23T11:30:58.329Z,1.50
2023-09-23T11:33:27.239Z,1.70
2023-09-23T11:35:58.467Z,3.63
2023-09-23T11:38:27.217Z,3.50
2023-09-23T11:40:55.777Z,1.70
2023-09-23T11:43:26.244Z,1.77
2023-09-23T11:45:54.832Z,1.75
2023-09-23T11:48:25.822Z,1.73
2023-09-23T11:50:54.862Z,1.65
2023-09-23T11:53:25.933Z,1.50
2023-09-23T11:55:54.825Z,2.03
2023-09-23T11:58:23.094Z,2.22
2023-09-23T12:00:51.479Z,2.03
2023-09-23T12:03:20.489Z,1.58
2023-09-23T12:05:54.347Z,2.10
2023-09-23T12:08:24.789Z,1.92
2023-09-23T12:10:56.115Z,1.90
2023-09-23T12:13:25.957Z,2.40
2023-09-23T12:15:56.049Z,1.77
2023-09-23T12:18:24.512Z,1.65
2023-09-23T12:20:52.903Z,1.80
2023-09-23T12:23:21.821Z,1.50
2023-09-23T12:25:51.487Z,2.05
2023-09-23T12:28:19.660Z,2.03
2023-09-23T12:30:48.071Z,2.05
2023-09-23T12:33:16.393Z,1.75
2023-09-23T12:35:44.823Z,1.98
2023-09-23T12:38:13.216Z,1.98
2023-09-23T12:40:42.409Z,1.70
2023-09-23T12:43:12.597Z,1.60
2023-09-23T12:45:42.800Z,2.17
2023-09-23T12:48:11.372Z,1.83
2023-09-23T12:50:39.765Z,1.70
2023-09-23T12:53:08.344Z,2.10
2023-09-23T12:55:36.933Z,1.88
2023-09-23T12:58:06.593Z,1.88
2023-09-23T13:00:37.012Z,2.67
2023-09-23T13:03:06.593Z,2.28
2023-09-23T13:05:37.204Z,2.92
2023-09-23T13:08:07.111Z,2.20
2023-09-23T13:10:35.751Z,2.58
2023-09-23T13:13:04.241Z,2.45
2023-09-23T13:15:32.647Z,3.08
2023-09-23T13:18:03.647Z,2.30
2023-09-23T13:20:32.355Z,2.45
2023-09-23T13:23:02.701Z,3.45
2023-09-23T13:25:32.058Z,2.63
2023-09-23T13:28:00.337Z,2.70
2023-09-23T13:30:29.158Z,2.60
2023-09-23T13:32:57.544Z,3.40
2023-09-23T13:35:27.314Z,3.35
2023-09-23T13:37:55.674Z,3.08
2023-09-23T13:40:25.085Z,3.90
2023-09-23T13:42:53.621Z,3.08
2023-09-23T13:45:22.040Z,3.20
2023-09-23T13:47:50.467Z,3.90
2023-09-23T13:50:19.013Z,2.90
2023-09-23T13:52:49.234Z,3.17
2023-09-23T13:55:17.435Z,3.33
2023-09-23T13:57:45.640Z,3.03
2023-09-23T14:00:14.577Z,2.65
2023-09-23T14:02:43.643Z,2.58
2023-09-23T14:05:12.049Z,2.58
2023-09-23T14:07:40.427Z,2.35
2023-09-23T14:10:21.330Z,2.53
2023-09-23T14:12:50.328Z,2.47
2023-09-23T14:15:19.037Z,3.17
2023-09-23T14:17:48.895Z,2.67
2023-09-23T14:20:17.820Z,2.13
2023-09-23T14:22:47.837Z,2.50
2023-09-23T14:25:18.735Z,2.33
2023-09-23T14:27:47.058Z,2.30
2023-09-23T14:30:15.538Z,2.30
2023-09-23T14:32:43.911Z,2.05
2023-09-23T14:35:12.179Z,2.13
2023-09-23T14:37:40.905Z,2.25
2023-09-23T14:40:10.324Z,2.55
2023-09-23T14:42:40.057Z,2.78
2023-09-23T14:45:09.957Z,2.72
2023-09-23T14:47:38.999Z,2.60
2023-09-23T14:50:08.177Z,2.55
2023-09-23T14:52:36.591Z,2.13
2023-09-23T14:55:06.536Z,2.85
2023-09-23T14:57:34.967Z,2.05
2023-09-23T15:00:06.548Z,4.75
2023-09-23T15:02:35.094Z,2.58
2023-09-23T15:05:03.789Z,2.20
2023-09-23T15:07:32.311Z,2.20
2023-09-23T15:10:00.776Z,2.92
2023-09-23T15:12:29.006Z,2.35
2023-09-23T15:14:57.430Z,2.47
2023-09-23T15:17:28.376Z,2.17
2023-09-23T15:19:56.761Z,2.20
2023-09-23T15:22:25.169Z,2.45
2023-09-23T15:24:53.369Z,2.28
2023-09-23T15:27:21.636Z,2.70
2023-09-23T15:29:49.874Z,2.13
2023-09-23T15:32:18.223Z,2.50
2023-09-23T15:34:48.053Z,2.42
2023-09-23T15:37:16.263Z,2.20
2023-09-23T15:39:46.305Z,2.53
2023-09-23T15:42:15.795Z,2.20
2023-09-23T15:44:44.314Z,2.35
2023-09-23T15:47:12.662Z,2.25
2023-09-23T15:49:44.083Z,2.10
2023-09-23T15:52:16.062Z,2.25
2023-09-23T15:54:44.314Z,3.25
2023-09-23T15:57:13.172Z,3.17
2023-09-23T15:59:41.799Z,2.75
2023-09-23T16:02:10.410Z,2.80
2023-09-23T16:04:38.836Z,3.15
2023-09-23T16:07:07.166Z,3.50
2023-09-23T16:09:36.826Z,2.42
2023-09-23T16:12:06.213Z,2.13
2023-09-23T16:14:34.609Z,2.30
2023-09-23T16:17:03.044Z,2.42
2023-09-23T16:19:31.371Z,3.10
2023-09-23T16:21:59.607Z,2.97
2023-09-23T16:24:27.801Z,3.33
2023-09-23T16:26:58.396Z,2.65
2023-09-23T16:29:26.709Z,2.17
2023-09-23T16:31:55.030Z,2.67
2023-09-23T16:34:23.303Z,2.30
2023-09-23T16:36:51.555Z,2.03
2023-09-23T16:39:22.882Z,2.25
2023-09-23T16:41:51.462Z,2.03
2023-09-23T16:44:21.429Z,2.50
2023-09-23T16:46:51.121Z,2.55
2023-09-23T16:49:19.611Z,2.20
2023-09-23T16:51:49.176Z,2.30
2023-09-23T16:54:17.418Z,2.10
2023-09-23T16:56:45.843Z,2.13
2023-09-23T16:59:14.157Z,2.58
2023-09-23T17:01:43.832Z,3.70
2023-09-23T17:04:12.618Z,2.80
2023-09-23T17:06:40.898Z,3.20
2023-09-23T17:09:09.326Z,3.50
2023-09-23T17:11:37.713Z,3.47
2023-09-23T17:14:06.775Z,3.92
2023-09-23T17:16:35.518Z,3.47
2023-09-23T17:19:05.686Z,3.05
2023-09-23T17:21:39.689Z,2.47
2023-09-23T17:24:08.636Z,2.10
2023-09-23T17:26:37.000Z,2.15
2023-09-23T17:29:07.567Z,2.83
2023-09-23T17:31:36.695Z,2.83
2023-09-23T17:34:06.571Z,2.40
2023-09-23T17:36:35.225Z,2.78
2023-09-23T17:39:03.972Z,4.35
2023-09-23T17:41:32.639Z,3.00
2023-09-23T17:44:01.016Z,2.90
2023-09-23T17:46:29.432Z,2.75
2023-09-23T17:48:57.790Z,4.22
2023-09-23T17:51:27.616Z,2.60
2023-09-23T17:53:55.897Z,2.88
2023-09-23T17:56:25.866Z,2.33
2023-09-23T17:58:54.138Z,2.45
2023-09-23T18:01:25.446Z,3.10
2023-09-23T18:03:54.171Z,2.25
2023-09-23T18:06:22.872Z,3.03
2023-09-23T18:08:52.835Z,2.83
2023-09-23T18:11:21.826Z,3.17
2023-09-23T18:13:50.294Z,2.67
2023-09-23T18:16:18.912Z,3.28
2023-09-23T18:18:47.561Z,3.00
2023-09-23T18:21:17.471Z,2.55
2023-09-23T18:23:46.251Z,2.63
2023-09-23T18:26:16.415Z,2.70
2023-09-23T18:28:46.022Z,2.42
2023-09-23T18:31:14.493Z,2.53
2023-09-23T18:33:43.218Z,2.75
2023-09-23T18:36:12.135Z,3.25
2023-09-23T18:38:40.675Z,3.38
2023-09-23T18:41:09.148Z,3.03
2023-09-23T18:43:38.770Z,2.97
2023-09-23T18:46:07.169Z,4.00
2023-09-23T18:48:35.503Z,2.70
2023-09-23T18:51:04.085Z,3.10
2023-09-23T18:53:34.541Z,2.92
2023-09-23T18:56:04.257Z,2.70
2023-09-23T18:58:32.884Z,2.55
2023-09-23T19:01:05.276Z,3.30
2023-09-23T19:03:33.796Z,2.08
2023-09-23T19:06:02.196Z,2.65
2023-09-23T19:08:30.875Z,2.17
2023-09-23T19:10:59.191Z,2.22
2023-09-23T19:13:27.496Z,2.70
2023-09-23T19:15:55.896Z,2.40
2023-09-23T19:18:25.740Z,2.25
2023-09-23T19:20:54.419Z,2.00
2023-09-23T19:23:22.810Z,2.33
2023-09-23T19:25:54.452Z,2.40
2023-09-23T19:28:23.654Z,2.50
2023-09-23T19:30:52.191Z,2.30
2023-09-23T19:33:20.466Z,2.60
2023-09-23T19:35:52.029Z,2.30
2023-09-23T19:38:20.466Z,3.13
2023-09-23T19:40:48.743Z,2.35
2023-09-23T19:43:18.822Z,2.65
2023-09-23T19:45:49.115Z,3.15
2023-09-23T19:48:17.725Z,3.25
2023-09-23T19:50:50.729Z,2.95
2023-09-23T19:53:19.393Z,2.58
2023-09-23T19:55:48.299Z,1.92
2023-09-23T19:58:19.641Z,2.47
2023-09-23T20:00:48.982Z,2.05
2023-09-23T20:03:17.987Z,2.58
2023-09-23T20:05:48.370Z,2.40
2023-09-23T20:08:19.775Z,2.53
2023-09-23T20:10:50.234Z,2.40
2023-09-23T20:13:20.358Z,2.50
2023-09-23T20:15:50.307Z,2.35
2023-09-23T20:18:18.931Z,2.13
2023-09-23T20:20:50.393Z,2.20
2023-09-23T20:23:20.109Z,2.10
2023-09-23T20:25:49.933Z,2.70
2023-09-23T20:28:18.815Z,2.25
2023-09-23T20:30:49.627Z,2.38
2023-09-23T20:33:19.820Z,2.92
2023-09-23T20:35:49.530Z,2.60
2023-09-23T20:38:19.549Z,2.15
2023-09-23T20:40:48.518Z,2.58
2023-09-23T20:43:17.480Z,3.22
2023-09-23T20:45:45.814Z,2.88
2023-09-23T20:48:14.414Z,3.05
2023-09-23T20:50:43.216Z,2.83
2023-09-23T20:53:12.736Z,2.47
2023-09-23T20:55:42.870Z,3.53
2023-09-23T20:58:11.575Z,2.97
2023-09-23T21:00:39.898Z,3.35
2023-09-23T21:03:10.107Z,4.30
2023-09-23T21:05:39.072Z,2.60
2023-09-23T21:08:07.660Z,3.20
2023-09-23T21:10:36.341Z,2.63
2023-09-23T21:13:06.417Z,2.63
2023-09-23T21:15:34.815Z,2.67
2023-09-23T21:18:03.303Z,3.13
2023-09-23T21:20:32.236Z,5.32
2023-09-23T21:23:02.955Z,3.70
2023-09-23T21:25:32.182Z,2.78
2023-09-23T21:28:02.270Z,2.83
2023-09-23T21:30:32.039Z,2.70
2023-09-23T21:33:00.362Z,2.97
2023-09-23T21:35:28.863Z,3.10
2023-09-23T21:37:57.107Z,3.03
2023-09-23T21:40:25.610Z,2.88
2023-09-23T21:42:53.812Z,2.72
2023-09-23T21:45:23.491Z,3.42
2023-09-23T21:47:53.280Z,3.00
2023-09-23T21:50:21.963Z,2.88
2023-09-23T21:52:50.293Z,2.85
2023-09-23T21:55:18.812Z,3.08
2023-09-23T21:57:49.102Z,3.25
2023-09-23T22:00:27.528Z,3.13
2023-09-23T22:02:59.708Z,3.50
2023-09-23T22:05:30.277Z,3.13
2023-09-23T22:08:00.351Z,3.25
2023-09-23T22:10:29.341Z,3.47
2023-09-23T22:13:00.209Z,3.47
2023-09-23T22:15:30.048Z,4.50
2023-09-23T22:17:59.800Z,3.92
2023-09-23T22:20:29.409Z,4.30
2023-09-23T22:23:00.685Z,3.45
2023-09-23T22:25:29.171Z,4.35
2023-09-23T22:27:59.541Z,3.55
2023-09-23T22:30:28.095Z,3.70
2023-09-23T22:32:57.723Z,4.22
2023-09-23T22:35:28.997Z,3.55
2023-09-23T22:37:58.216Z,3.25
2023-09-23T22:40:26.797Z,3.92
2023-09-23T22:42:59.097Z,3.75
2023-09-23T22:48:00.510Z,3.45
2023-09-23T22:50:30.383Z,7.30
2023-09-23T22:52:59.030Z,3.85
2023-09-23T22:55:27.454Z,3.35
2023-09-23T22:57:56.870Z,3.42
2023-09-23T23:00:28.618Z,3.55
2023-09-23T23:02:58.293Z,3.30
2023-09-23T23:05:27.951Z,3.65
2023-09-23T23:07:58.582Z,3.88
2023-09-23T23:10:26.989Z,4.80
2023-09-23T23:12:55.747Z,3.83
2023-09-23T23:15:24.538Z,3.50
2023-09-23T23:17:53.866Z,3.95
2023-09-23T23:20:24.356Z,4.25
2023-09-23T23:22:54.118Z,4.75
2023-09-23T23:25:25.284Z,4.07
2023-09-23T23:27:54.387Z,5.43
2023-09-23T23:30:22.944Z,4.22
2023-09-23T23:32:53.145Z,3.22
2023-09-23T23:35:23.585Z,3.47
2023-09-23T23:37:52.942Z,3.42
2023-09-23T23:40:22.632Z,3.45
2023-09-23T23:42:52.778Z,3.90
2023-09-23T23:45:22.163Z,3.80
2023-09-23T23:47:56.465Z,3.22
2023-09-23T23:50:25.124Z,3.55
2023-09-23T23:52:53.705Z,3.03
2023-09-23T23:55:26.191Z,3.60
2023-09-23T23:57:56.350Z,3.30
